Time;durP1;ratioP1;P1;durP2;ratioP2;P2;SDS_P1;SDS_P2;PMS_P1;PMS_P2;Temp;Humidity;BMP_temperature;BMP_pressure;BME280_temperature;BME280_humidity;BME280_pressure;Samples;Min_cycle;Max_cycle;Signal;HPM_P1;HPM_P2
2023/04/16 00:01:59;;;;;;;;;;;;;;;;;;5074432;28;20008;-75
2023/04/16 00:05:02;;;;;;;;;;;;;;;;;;5073090;28;20441;-75
2023/04/16 00:08:06;;;;;;;;;;;;;;;;;;5073876;28;19962;-76
2023/04/16 00:11:09;;;;;;;;;;;;;;;;;;5074353;28;19939;-76
2023/04/16 00:14:15;;;;;;;;;;;;;;;;;;5066448;28;19974;-76
2023/04/16 00:17:18;;;;;;;;;;;;;;;;;;5059551;28;19979;-77
2023/04/16 00:20:21;;;;;;;;;;;;;;;;;;5072384;28;20311;-77
2023/04/16 00:23:24;;;;;;;;;;;;;;;;;;5073062;28;19927;-78
2023/04/16 00:26:27;;;;;;;;;;;;;;;;;;5073001;28;20307;-77
2023/04/16 00:29:31;;;;;;;;;;;;;;;;;;5073859;28;19920;-77
2023/04/16 00:32:35;;;;;;;;;;;;;;;;;;5059537;28;19922;-76
2023/04/16 00:35:39;;;;;;;;;;;;;;;;;;5072282;28;19970;-76
2023/04/16 00:38:42;;;;;;;;;;;;;;;;;;5069677;28;20386;-76
2023/04/16 00:41:45;;;;;;;;;;;;;;;;;;5061361;28;20395;-77
2023/04/16 00:44:48;;;;;;;;;;;;;;;;;;5061355;28;20662;-77
2023/04/16 00:47:51;;;;;;;;;;;;;;;;;;5073567;28;19919;-77
2023/04/16 00:50:54;;;;;;;;;;;;;;;;;;5073681;28;19927;-76
2023/04/16 00:53:57;;;;;;;;;;;;;;;;;;5071474;28;20004;-76
2023/04/16 00:57:01;;;;;;;;;;;;;;;;;;5059547;28;20020;-77
2023/04/16 01:00:03;;;;;;;;;;;;;;;;;;5073422;28;19928;-77
2023/04/16 01:03:07;;;;;;;;;;;;;;;;;;5072442;28;20049;-77
2023/04/16 01:06:10;;;;;;;;;;;;;;;;;;5072893;28;19982;-77
2023/04/16 01:09:13;;;;;;;;;;;;;;;;;;5072948;28;19920;-77
2023/04/16 01:12:15;;;;;;;;;;;;;;;;;;5060793;28;19935;-77
2023/04/16 01:15:19;;;;;;;;;;;;;;;;;;5072815;28;19924;-76
2023/04/16 01:18:22;;;;;;;;;;;;;;;;;;5059182;28;19962;-76
2023/04/16 01:21:25;;;;;;;;;;;;;;;;;;5059481;28;19923;-76
2023/04/16 01:24:28;;;;;;;;;;;;;;;;;;5069130;28;20426;-76
2023/04/16 01:27:31;;;;;;;;;;;;;;;;;;5072801;28;19923;-76
2023/04/16 01:30:34;;;;;;;;;;;;;;;;;;5058365;28;19919;-75
2023/04/16 01:33:45;;;;;;;;;;;;;;;;;;5060690;28;19943;-76
2023/04/16 01:36:50;;;;;;;;;;;;;;;;;;5071951;28;19992;-76
2023/04/16 01:39:52;;;;;;;;;;;;;;;;;;5067066;28;19920;-76
2023/04/16 01:42:56;;;;;;;;;;;;;;;;;;5072542;28;19950;-76
2023/04/16 01:45:59;;;;;;;;;;;;;;;;;;5059848;28;19939;-77
2023/04/16 01:49:02;;;;;;;;;;;;;;;;;;5071185;28;19958;-76
2023/04/16 01:52:07;;;;;;;;;;;;;;;;;;5059286;28;19935;-76
2023/04/16 01:55:10;;;;;;;;;;;;;;;;;;5072717;28;19920;-76
2023/04/16 01:58:13;;;;;;;;;;;;;;;;;;5059598;28;20391;-75
2023/04/16 02:01:17;;;;;;;;;;;;;;;;;;5057842;28;19926;-75
2023/04/16 02:04:20;;;;;;;;;;;;;;;;;;5058168;28;19924;-75
2023/04/16 02:07:24;;;;;;;;;;;;;;;;;;5054036;28;20458;-75
2023/04/16 02:10:27;;;;;;;;;;;;;;;;;;5060137;28;20008;-76
2023/04/16 02:13:30;;;;;;;;;;;;;;;;;;5060961;28;19920;-75
2023/04/16 02:16:33;;;;;;;;;;;;;;;;;;5060115;28;19920;-75
2023/04/16 02:19:45;;;;;;;;;;;;;;;;;;5069074;28;19958;-75
2023/04/16 02:22:48;;;;;;;;;;;;;;;;;;5060829;28;20025;-76
2023/04/16 02:25:54;;;;;;;;;;;;;;;;;;5060558;28;19927;-75
2023/04/16 02:28:57;;;;;;;;;;;;;;;;;;5072533;28;20306;-75
2023/04/16 02:32:06;;;;;;;;;;;;;;;;;;5059475;28;20012;-75
2023/04/16 02:35:10;;;;;;;;;;;;;;;;;;5072760;28;19959;-75
2023/04/16 02:38:12;;;;;;;;;;;;;;;;;;5073430;28;19966;-75
2023/04/16 02:41:15;;;;;;;;;;;;;;;;;;5073264;28;19988;-75
2023/04/16 02:44:18;;;;;;;;;;;;;;;;;;5071353;28;20062;-75
2023/04/16 02:47:21;;;;;;;;;;;;;;;;;;5070895;28;19919;-75
2023/04/16 02:50:24;;;;;;;;;;;;;;;;;;5059407;28;19923;-75
2023/04/16 02:53:27;;;;;;;;;;;;;;;;;;5058615;28;20252;-76
2023/04/16 02:56:30;;;;;;;;;;;;;;;;;;5071516;28;19919;-75
2023/04/16 02:59:33;;;;;;;;;;;;;;;;;;5058798;28;19935;-75
2023/04/16 03:02:36;;;;;;;;;;;;;;;;;;5059478;28;19967;-76
2023/04/16 03:05:39;;;;;;;;;;;;;;;;;;5059753;28;19924;-76
2023/04/16 03:08:42;;;;;;;;;;;;;;;;;;5072015;28;20387;-75
2023/04/16 03:11:45;;;;;;;;;;;;;;;;;;5060083;28;19923;-75
2023/04/16 03:14:48;;;;;;;;;;;;;;;;;;5072545;28;19974;-75
2023/04/16 03:17:51;;;;;;;;;;;;;;;;;;5071885;28;19920;-75
2023/04/16 03:20:54;;;;;;;;;;;;;;;;;;5059967;28;20396;-75
2023/04/16 03:23:57;;;;;;;;;;;;;;;;;;5072069;28;19999;-75
2023/04/16 03:27:01;;;;;;;;;;;;;;;;;;5060276;28;19919;-75
2023/04/16 03:30:04;;;;;;;;;;;;;;;;;;5059688;28;19959;-76
2023/04/16 03:33:09;;;;;;;;;;;;;;;;;;5058994;28;20395;-75
2023/04/16 03:36:12;;;;;;;;;;;;;;;;;;5059335;28;19970;-75
2023/04/16 03:39:15;;;;;;;;;;;;;;;;;;5059212;28;20387;-75
2023/04/16 03:42:18;;;;;;;;;;;;;;;;;;5058969;28;20423;-75
2023/04/16 03:45:21;;;;;;;;;;;;;;;;;;5058972;28;20366;-74
2023/04/16 03:48:26;;;;;;;;;;;;;;;;;;5059184;28;19949;-75
2023/04/16 03:51:30;;;;;;;;;;;;;;;;;;5059289;28;20411;-75
2023/04/16 03:58:50;;;;;;;;;;;;;;;;;;5071932;28;19928;-76
2023/04/16 04:01:55;;;;;;;;;;;;;;;;;;5062748;28;19942;-76
2023/04/16 04:04:57;;;;;;;;;;;;;;;;;;5063437;28;20009;-75
2023/04/16 04:08:00;;;;;;;;;;;;;;;;;;5075500;28;19919;-75
2023/04/16 04:11:06;;;;;;;;;;;;;;;;;;5063225;28;19919;-75
2023/04/16 04:14:10;;;;;;;;;;;;;;;;;;5063195;28;19919;-75
2023/04/16 04:17:13;;;;;;;;;;;;;;;;;;5075163;28;20037;-75
2023/04/16 04:20:16;;;;;;;;;;;;;;;;;;5063273;28;19918;-75
2023/04/16 04:23:20;;;;;;;;;;;;;;;;;;5063214;28;20398;-75
2023/04/16 04:26:24;;;;;;;;;;;;;;;;;;5062831;28;19923;-75
2023/04/16 04:29:26;;;;;;;;;;;;;;;;;;5061867;28;20339;-76
2023/04/16 04:32:30;;;;;;;;;;;;;;;;;;5061520;28;19963;-76
2023/04/16 04:35:33;;;;;;;;;;;;;;;;;;5062865;28;20414;-76
2023/04/16 04:38:36;;;;;;;;;;;;;;;;;;5062486;28;19920;-75
2023/04/16 04:41:40;;;;;;;;;;;;;;;;;;5062595;28;19924;-76
2023/04/16 04:44:42;;;;;;;;;;;;;;;;;;5062254;28;20087;-76
2023/04/16 04:47:45;;;;;;;;;;;;;;;;;;5073484;28;19966;-75
2023/04/16 04:50:48;;;;;;;;;;;;;;;;;;5073953;28;19920;-76
2023/04/16 04:53:51;;;;;;;;;;;;;;;;;;5062146;28;20418;-76
2023/04/16 04:56:53;;;;;;;;;;;;;;;;;;5074693;28;20012;-75
2023/04/16 04:59:57;;;;;;;;;;;;;;;;;;5062170;28;19973;-75
2023/04/16 05:02:59;;;;;;;;;;;;;;;;;;5062000;28;19919;-75
2023/04/16 05:06:03;;;;;;;;;;;;;;;;;;5072587;28;19923;-75
2023/04/16 05:09:10;;;;;;;;;;;;;;;;;;5073280;28;19974;-75
2023/04/16 05:12:13;;;;;;;;;;;;;;;;;;5072670;28;19919;-75
2023/04/16 05:15:17;;;;;;;;;;;;;;;;;;5074456;28;19919;-76
2023/04/16 05:18:41;;;;;;;;;;;;;;;;;;5074639;28;20015;-75
2023/04/16 05:21:44;;;;;;;;;;;;;;;;;;5073878;28;19982;-75
2023/04/16 05:24:47;;;;;;;;;;;;;;;;;;5074166;28;19924;-76
2023/04/16 05:27:50;;;;;;;;;;;;;;;;;;5073933;28;19920;-76
2023/04/16 05:30:53;;;;;;;;;;;;;;;;;;5073872;28;20378;-76
2023/04/16 05:33:56;;;;;;;;;;;;;;;;;;5073503;28;20006;-76
2023/04/16 05:37:00;;;;;;;;;;;;;;;;;;5073804;28;19966;-75
2023/04/16 05:40:03;;;;;;;;;;;;;;;;;;5074307;28;20332;-75
2023/04/16 05:43:06;;;;;;;;;;;;;;;;;;5073907;28;19939;-76
2023/04/16 05:46:09;;;;;;;;;;;;;;;;;;5074048;28;19940;-75
2023/04/16 05:49:13;;;;;;;;;;;;;;;;;;5073814;28;19939;-76
2023/04/16 05:52:15;;;;;;;;;;;;;;;;;;5073771;28;19918;-75
2023/04/16 05:55:19;;;;;;;;;;;;;;;;;;5074108;28;19935;-76
2023/04/16 05:58:22;;;;;;;;;;;;;;;;;;5073515;28;19977;-76
2023/04/16 06:01:30;;;;;;;;;;;;;;;;;;5073655;28;19938;-76
2023/04/16 06:04:36;;;;;;;;;;;;;;;;;;5072451;28;19943;-75
2023/04/16 06:07:39;;;;;;;;;;;;;;;;;;5073576;28;19955;-76
2023/04/16 06:10:41;;;;;;;;;;;;;;;;;;5073765;28;19958;-76
2023/04/16 06:13:46;;;;;;;;;;;;;;;;;;5073366;28;19922;-76
2023/04/16 06:16:49;;;;;;;;;;;;;;;;;;5061006;28;20312;-75
2023/04/16 06:19:53;;;;;;;;;;;;;;;;;;5061243;28;19958;-76
2023/04/16 06:22:57;;;;;;;;;;;;;;;;;;5072711;28;20764;-77
2023/04/16 06:26:01;;;;;;;;;;;;;;;;;;5073121;28;19924;-75
2023/04/16 06:29:04;;;;;;;;;;;;;;;;;;5073158;28;20077;-75
2023/04/16 06:32:09;;;;;;;;;;;;;;;;;;5072364;28;19969;-75
2023/04/16 06:35:12;;;;;;;;;;;;;;;;;;5073029;28;20576;-75
2023/04/16 06:38:15;;;;;;;;;;;;;;;;;;5073213;28;19962;-75
2023/04/16 06:41:18;;;;;;;;;;;;;;;;;;5072576;28;20328;-75
2023/04/16 06:44:21;;;;;;;;;;;;;;;;;;5073172;28;19939;-76
2023/04/16 06:47:23;;;;;;;;;;;;;;;;;;5072321;28;19918;-76
2023/04/16 06:50:27;;;;;;;;;;;;;;;;;;5073102;28;19919;-75
2023/04/16 06:53:33;;;;;;;;;;;;;;;;;;5073073;28;20440;-76
2023/04/16 07:00:32;;;;;;;;;;;;;;;;;;5072719;28;19966;-74
2023/04/16 07:03:37;;;;;;;;;;;;;;;;;;5072852;28;19920;-76
2023/04/16 07:14:41;;;;;;;;;;;;;;;;;;;;;
2023/04/16 07:22:28;;;;;;;;;;;;;;;;;;5018612;28;19979;-75
2023/04/16 07:25:34;;;;;;;;;;;;;;;;;;;;;
2023/04/16 07:29:03;;;;;;;;;;;;;;;;;;5030821;28;19935;-80
2023/04/16 07:32:17;;;;;;;;;;;;;;;;;;5029328;28;19923;-79
2023/04/16 07:35:23;;;;;;;;;;;;;;;;;;5031555;28;19975;-79
2023/04/16 07:38:29;;;;;;;;;;;;;;;;;;5033350;28;19955;-81
2023/04/16 07:41:35;;;;;;;;;;;;;;;;;;5010547;28;19959;-82
2023/04/16 07:44:38;;;;;;;;;;;;;;;;;;5046904;28;19928;-78
2023/04/16 07:47:41;;;;;;;;;;;;;;;;;;5076035;28;20391;-81
2023/04/16 07:50:44;;;;;;;;;;;;;;;;;;5076112;28;20020;-81
2023/04/16 07:53:48;;;;;;;;;;;;;;;;;;5063800;28;19958;-82
2023/04/16 07:57:16;;;;;;;;;;;;;;;;;;5074762;28;19919;-81
2023/04/16 08:00:18;;;;;;;;;;;;;;;;;;5074129;28;20369;-81
2023/04/16 08:03:22;;;;;;;;;;;;;;;;;;5055516;28;20391;-80
2023/04/16 08:06:25;;;;;;;;;;;;;;;;;;5056155;28;20339;-81
2023/04/16 08:09:28;;;;;;;;;;;;;;;;;;5055070;28;20338;-81
2023/04/16 08:12:31;;;;;;;;;;;;;;;;;;5043595;28;19920;-79
2023/04/16 08:15:34;;;;;;;;;;;;;;;;;;5055609;28;19967;-81
2023/04/16 08:18:38;;;;;;;;;;;;;;;;;;5058010;28;20021;-81
2023/04/16 08:21:40;;;;;;;;;;;;;;;;;;5075739;28;19919;-81
2023/04/16 08:24:43;;;;;;;;;;;;;;;;;;5075293;28;19923;-82
2023/04/16 08:27:46;;;;;;;;;;;;;;;;;;5075707;28;19993;-80
2023/04/16 08:30:51;;;;;;;;;;;;;;;;;;5075243;28;19919;-78
2023/04/16 08:33:55;;;;;;;;;;;;;;;;;;5055652;28;19919;-79
2023/04/16 08:36:58;;;;;;;;;;;;;;;;;;5066144;28;20411;-79
2023/04/16 08:40:02;;;;;;;;;;;;;;;;;;5055422;28;19948;-78
2023/04/16 08:43:05;;;;;;;;;;;;;;;;;;5055303;28;19970;-79
2023/04/16 08:46:07;;;;;;;;;;;;;;;;;;5054689;28;19993;-80
2023/04/16 08:49:10;;;;;;;;;;;;;;;;;;5055458;28;19920;-78
2023/04/16 08:52:13;;;;;;;;;;;;;;;;;;5055080;28;19920;-78
2023/04/16 08:55:16;;;;;;;;;;;;;;;;;;5055205;28;19919;-78
2023/04/16 08:58:20;;;;;;;;;;;;;;;;;;5054748;28;19936;-79
2023/04/16 09:01:23;;;;;;;;;;;;;;;;;;5054980;28;20015;-78
2023/04/16 09:04:26;;;;;;;;;;;;;;;;;;5054793;28;20423;-79
2023/04/16 09:07:29;;;;;;;;;;;;;;;;;;5054690;28;19920;-77
2023/04/16 09:10:32;;;;;;;;;;;;;;;;;;5054926;28;19920;-77
2023/04/16 09:13:35;;;;;;;;;;;;;;;;;;5054836;28;19927;-78
2023/04/16 09:16:37;;;;;;;;;;;;;;;;;;5054732;28;20388;-78
2023/04/16 09:19:40;;;;;;;;;;;;;;;;;;5054578;28;20384;-77
2023/04/16 09:22:43;;;;;;;;;;;;;;;;;;5054537;28;20391;-78
2023/04/16 09:25:46;;;;;;;;;;;;;;;;;;5054594;28;20292;-73
2023/04/16 09:28:51;;;;;;;;;;;;;;;;;;5042411;28;19982;-76
2023/04/16 09:31:54;;;;;;;;;;;;;;;;;;5054419;28;19974;-71
2023/04/16 09:34:57;;;;;;;;;;;;;;;;;;5053424;28;19920;-72
2023/04/16 09:38:01;;;;;;;;;;;;;;;;;;5054564;28;19963;-74
2023/04/16 09:41:03;;;;;;;;;;;;;;;;;;5054309;28;19923;-76
2023/04/16 09:44:09;;;;;;;;;;;;;;;;;;5054083;28;20055;-79
2023/04/16 09:47:12;;;;;;;;;;;;;;;;;;5053923;28;19920;-70
2023/04/16 09:50:15;;;;;;;;;;;;;;;;;;5054386;28;20347;-69
2023/04/16 09:53:18;;;;;;;;;;;;;;;;;;5054055;28;19920;-69
2023/04/16 09:56:22;;;;;;;;;;;;;;;;;;5053999;28;20343;-71
2023/04/16 09:59:25;;;;;;;;;;;;;;;;;;5053233;28;19931;-71
2023/04/16 10:02:27;;;;;;;;;;;;;;;;;;5053659;28;20006;-73
2023/04/16 10:05:33;;;;;;;;;;;;;;;;;;5053592;28;20394;-74
2023/04/16 10:08:36;;;;;;;;;;;;;;;;;;5065714;28;19970;-79
2023/04/16 10:11:39;;;;;;;;;;;;;;;;;;5073531;28;19946;-78
2023/04/16 10:14:43;;;;;;;;;;;;;;;;;;5073369;28;19919;-76
2023/04/16 10:17:46;;;;;;;;;;;;;;;;;;5061372;28;19965;-82
2023/04/16 10:20:53;;;;;;;;;;;;;;;;;;5073496;28;19924;-79
2023/04/16 10:23:56;;;;;;;;;;;;;;;;;;5073356;28;19919;-77
2023/04/16 10:26:59;;;;;;;;;;;;;;;;;;5073355;28;20391;-71
2023/04/16 10:30:01;;;;;;;;;;;;;;;;;;5073397;28;19919;-75
2023/04/16 10:33:07;;;;;;;;;;;;;;;;;;5073203;28;19920;-77
2023/04/16 10:36:10;;;;;;;;;;;;;;;;;;5072975;28;20008;-78
2023/04/16 10:39:14;;;;;;;;;;;;;;;;;;5072398;28;20569;-78
2023/04/16 10:42:17;;;;;;;;;;;;;;;;;;5073162;28;20360;-81
2023/04/16 10:45:20;;;;;;;;;;;;;;;;;;5073033;28;19978;-77
2023/04/16 10:48:24;;;;;;;;;;;;;;;;;;5072892;28;19924;-76
2023/04/16 10:51:28;;;;;;;;;;;;;;;;;;5073159;28;20407;-76
2023/04/16 10:54:33;;;;;;;;;;;;;;;;;;5060742;28;19974;-79
2023/04/16 10:57:36;;;;;;;;;;;;;;;;;;5072561;28;19927;-79
2023/04/16 11:00:43;;;;;;;;;;;;;;;;;;5037808;28;20008;-81
2023/04/16 11:03:48;;;;;;;;;;;;;;;;;;5052739;28;19928;-79
2023/04/16 11:06:51;;;;;;;;;;;;;;;;;;5051390;28;20333;-74
2023/04/16 11:09:55;;;;;;;;;;;;;;;;;;5054124;28;20288;-74
2023/04/16 11:12:59;;;;;;;;;;;;;;;;;;5056709;28;19919;-71
2023/04/16 11:16:04;;;;;;;;;;;;;;;;;;5056891;28;19966;-71
2023/04/16 11:19:07;;;;;;;;;;;;;;;;;;5057052;28;20436;-71
2023/04/16 11:22:11;;;;;;;;;;;;;;;;;;5044220;28;20284;-70
2023/04/16 11:25:29;;;;;;;;;;;;;;;;;;5054330;28;19978;-71
2023/04/16 11:28:32;;;;;;;;;;;;;;;;;;5034845;28;19971;-71
2023/04/16 11:31:36;;;;;;;;;;;;;;;;;;5054602;28;19978;-70
2023/04/16 11:34:44;;;;;;;;;;;;;;;;;;5053604;28;20448;-70
2023/04/16 11:37:53;;;;;;;;;;;;;;;;;;5049779;28;19967;-70
2023/04/16 11:40:59;;;;;;;;;;;;;;;;;;5051681;28;20425;-80
2023/04/16 11:44:05;;;;;;;;;;;;;;;;;;5052246;28;19923;-77
2023/04/16 11:47:08;;;;;;;;;;;;;;;;;;5052575;28;19963;-77
2023/04/16 11:50:11;;;;;;;;;;;;;;;;;;5040202;28;19919;-77
2023/04/16 11:53:14;;;;;;;;;;;;;;;;;;5038152;28;19935;-75
2023/04/16 11:56:18;;;;;;;;;;;;;;;;;;5045557;28;19924;-74
2023/04/16 11:59:21;;;;;;;;;;;;;;;;;;5062735;28;20292;-75
2023/04/16 12:02:25;;;;;;;;;;;;;;;;;;5054963;28;19919;-73
2023/04/16 12:05:29;;;;;;;;;;;;;;;;;;5055367;28;19978;-74
2023/04/16 12:08:32;;;;;;;;;;;;;;;;;;5054562;28;20425;-77
2023/04/16 12:11:35;;;;;;;;;;;;;;;;;;5057248;28;19923;-75
2023/04/16 12:14:38;;;;;;;;;;;;;;;;;;5075332;28;20015;-73
2023/04/16 12:17:42;;;;;;;;;;;;;;;;;;5061444;28;20085;-72
2023/04/16 12:20:45;;;;;;;;;;;;;;;;;;5072494;28;19978;-75
2023/04/16 12:23:47;;;;;;;;;;;;;;;;;;5075380;28;19920;-74
2023/04/16 12:26:50;;;;;;;;;;;;;;;;;;5072779;28;19969;-75
2023/04/16 12:29:57;;;;;;;;;;;;;;;;;;5074727;28;19963;-79
2023/04/16 12:33:00;;;;;;;;;;;;;;;;;;5055416;28;19936;-75
2023/04/16 12:36:03;;;;;;;;;;;;;;;;;;5071977;28;19959;-76
2023/04/16 12:39:06;;;;;;;;;;;;;;;;;;5057884;28;19975;-75
2023/04/16 12:42:11;;;;;;;;;;;;;;;;;;5074647;28;20048;-78
2023/04/16 12:45:14;;;;;;;;;;;;;;;;;;5054907;28;20288;-76
2023/04/16 12:48:17;;;;;;;;;;;;;;;;;;5072988;28;20422;-76
2023/04/16 12:51:20;;;;;;;;;;;;;;;;;;5063924;28;19935;-76
2023/04/16 12:54:27;;;;;;;;;;;;;;;;;;5072774;28;20088;-76
2023/04/16 12:57:31;;;;;;;;;;;;;;;;;;5086618;28;19919;-76
2023/04/16 13:00:37;;;;;;;;;;;;;;;;;;5092293;28;20388;-76
2023/04/16 13:03:45;;;;;;;;;;;;;;;;;;5072890;28;19924;-76
2023/04/16 13:06:47;;;;;;;;;;;;;;;;;;5073765;28;19994;-75
2023/04/16 13:09:50;;;;;;;;;;;;;;;;;;5074233;28;19919;-76
2023/04/16 13:16:20;;;;;;;;;;;;;;;;;;5074366;28;19966;-75
2023/04/16 13:19:23;;;;;;;;;;;;;;;;;;5074285;28;19919;-73
2023/04/16 13:22:26;;;;;;;;;;;;;;;;;;5072631;28;19923;-73
2023/04/16 13:25:29;;;;;;;;;;;;;;;;;;5073519;28;20441;-75
2023/04/16 13:28:32;;;;;;;;;;;;;;;;;;5069691;28;19919;-74
2023/04/16 13:31:35;;;;;;;;;;;;;;;;;;5073005;28;20415;-76
2023/04/16 13:34:39;;;;;;;;;;;;;;;;;;5073071;28;19919;-76
2023/04/16 13:37:41;;;;;;;;;;;;;;;;;;5073826;28;19924;-78
2023/04/16 13:40:44;;;;;;;;;;;;;;;;;;5060941;28;20277;-78
2023/04/16 13:43:48;;;;;;;;;;;;;;;;;;5072995;28;20390;-75
2023/04/16 13:46:52;;;;;;;;;;;;;;;;;;5070750;28;19924;-78
2023/04/16 13:49:55;;;;;;;;;;;;;;;;;;5070816;28;19923;-76
2023/04/16 13:52:58;;;;;;;;;;;;;;;;;;5071259;28;20279;-74
2023/04/16 13:56:11;;;;;;;;;;;;;;;12.09;69.71;101170.69;5098929;27;19966;-74
2023/04/16 13:59:15;;;;;;;;;;;;;;;12.04;69.07;101168.31;5097358;28;20292;-74
2023/04/16 14:02:19;;;;;;;;;;;;;;;12.10;69.22;101175.88;5098551;28;20391;-76
2023/04/16 14:05:22;;;;;;;;;;;;;;;12.23;69.06;101165.63;5099342;28;19977;-72
2023/04/16 14:08:26;;;;;;;;;;;;;;;12.18;69.06;101172.88;5088084;28;20380;-76
2023/04/16 14:11:30;;;;;;;;;;;;;;;12.25;68.73;101174.28;5101300;28;20008;-74
2023/04/16 14:14:34;;;;;;;;;;;;;;;12.36;66.59;101165.88;5096894;28;19927;-74
2023/04/16 14:17:37;;;;;;;;;;;;;;;13.23;65.54;101157.91;5097071;28;20339;-78
2023/04/16 14:20:40;;;;;;;;;;;;;;;13.20;63.31;101161.56;5098835;28;19946;-74
2023/04/16 14:23:44;;;;;;;;;;;;;;;13.32;62.95;101156.63;5078548;28;20589;-74
2023/04/16 14:26:47;;;;;;;;;;;;;;;13.09;62.22;101157.81;5082966;28;19950;-73
2023/04/16 14:29:51;;;;;;;;;;;;;;;13.08;62.93;101156.97;5069984;28;19924;-76
2023/04/16 14:32:55;;;;;;;;;;;;;;;12.99;63.02;101158.28;5057692;28;19999;-78
2023/04/16 14:35:58;;;;;;;;;;;;;;;12.94;63.26;101162.06;5069346;28;20073;-77
2023/04/16 14:39:02;;;;;;;;;;;;;;;12.83;61.77;101164.38;5069375;28;19924;-77
2023/04/16 14:42:05;;;;;;;;;;;;;;;12.60;61.97;101169.03;5079342;28;20277;-81
2023/04/16 14:45:09;;;;;;;;;;;;;;;12.49;62.75;101171.38;5078098;28;19994;-74
2023/04/16 14:48:15;;;;;;;;;;;;;;;12.44;63.20;101171.56;5075705;28;20322;-76
2023/04/16 14:51:19;;;;;;;;;;;;;;;12.23;63.12;101177.91;5078979;28;20009;-77
2023/04/16 14:54:22;;;;;;;;;;;;;;;12.24;63.78;101175.19;5078145;28;19986;-77
2023/04/16 14:57:26;;;;;;;;;;;;;;;12.27;64.84;101184.69;5078893;28;20265;-78
2023/04/16 15:00:30;;;;;;;;;;;;;;;12.19;65.19;101181.56;5079862;28;19946;-78
2023/04/16 15:03:35;;;;;;;;;;;;;;;12.22;64.45;101179.69;5049339;28;19924;-77
2023/04/16 15:06:38;;;;;;;;;;;;;;;12.28;65.56;101182.00;5040851;28;20008;-78
2023/04/16 15:09:42;;;;;;;;;;;;;;;12.27;65.40;101175.03;5072130;28;19923;-77
2023/04/16 15:12:45;;;;;;;;;;;;;;;12.26;65.12;101183.00;5075751;28;19955;-76
2023/04/16 15:15:48;;;;;;;;;;;;;;;12.30;65.48;101180.13;5075584;28;19928;-74
2023/04/16 15:18:52;;;;;;;;;;;;;;;12.39;66.32;101178.00;5075489;28;19923;-73
2023/04/16 15:21:59;;;;;;;;;;;;;;;12.43;66.47;101180.38;5063176;28;19973;-74
2023/04/16 15:25:04;;;;;;;;;;;;;;;12.39;65.56;101181.47;5075322;28;19939;-79
2023/04/16 15:28:07;;;;;;;;;;;;;;;12.42;65.93;101183.09;5075500;28;19923;-77
2023/04/16 15:31:11;;;;;;;;;;;;;;;12.48;65.90;101177.56;5075025;28;20016;-80
2023/04/16 15:34:19;;;;;;;;;;;;;;;12.52;66.18;101181.72;5075265;28;20019;-79
2023/04/16 15:37:22;;;;;;;;;;;;;;;12.53;66.95;101180.78;5075206;28;19939;-82
2023/04/16 15:40:26;;;;;;;;;;;;;;;12.50;65.89;101184.38;5062757;28;20512;-83
2023/04/16 15:43:30;;;;;;;;;;;;;;;12.45;66.39;101185.56;5062963;28;20394;-78
2023/04/16 15:46:34;;;;;;;;;;;;;;;12.38;66.19;101189.41;5074860;28;20065;-74
2023/04/16 15:49:37;;;;;;;;;;;;;;;12.31;65.20;101184.44;5074802;28;19966;-74
2023/04/16 15:52:41;;;;;;;;;;;;;;;12.30;65.91;101184.53;5075139;28;19928;-73
2023/04/16 15:55:44;;;;;;;;;;;;;;;12.27;65.74;101185.53;5037178;28;19978;-79
2023/04/16 15:58:47;;;;;;;;;;;;;;;12.33;66.09;101181.75;5034668;28;19924;-79
2023/04/16 16:01:50;;;;;;;;;;;;;;;12.34;65.32;101186.06;5035017;28;19928;-81
2023/04/16 16:04:54;;;;;;;;;;;;;;;12.47;65.54;101183.69;5034543;28;20381;-80
2023/04/16 16:07:57;;;;;;;;;;;;;;;12.54;66.56;101185.13;5034637;28;20006;-79
2023/04/16 16:11:06;;;;;;;;;;;;;;;12.61;65.28;101194.38;5033886;28;19925;-78
2023/04/16 16:14:09;;;;;;;;;;;;;;;12.49;64.19;101187.09;5034400;28;20455;-78
2023/04/16 16:17:12;;;;;;;;;;;;;;;12.54;64.60;101193.00;5033955;28;20004;-79
2023/04/16 16:20:15;;;;;;;;;;;;;;;12.41;65.92;101198.00;5034575;28;19927;-80
2023/04/16 16:23:18;;;;;;;;;;;;;;;12.46;65.45;101193.34;5034338;28;20274;-76
2023/04/16 16:26:24;;;;;;;;;;;;;;;12.39;64.72;101201.59;5032881;28;19924;-79
2023/04/16 16:29:28;;;;;;;;;;;;;;;12.18;65.20;101196.47;5034149;28;19940;-81
2023/04/16 16:32:33;;;;;;;;;;;;;;;12.18;65.47;101196.47;5034206;28;19924;-73
2023/04/16 16:35:37;;;;;;;;;;;;;;;12.21;65.50;101204.19;5033986;28;20432;-78
2023/04/16 16:38:45;;;;;;;;;;;;;;;12.15;65.05;101203.63;5032597;28;19928;-77
2023/04/16 16:41:51;;;;;;;;;;;;;;;12.19;66.00;101202.56;5015353;28;20125;-78
2023/04/16 16:44:54;;;;;;;;;;;;;;;12.12;65.32;101204.63;5012488;28;19945;-82
2023/04/16 16:47:58;;;;;;;;;;;;;;;12.04;66.46;101201.53;5013921;28;20052;-82
2023/04/16 16:51:01;;;;;;;;;;;;;;;12.04;67.24;101206.78;5013958;28;19987;-78
2023/04/16 16:54:05;;;;;;;;;;;;;;;12.06;66.64;101211.03;5019405;28;19927;-81
2023/04/16 16:57:11;;;;;;;;;;;;;;;12.07;67.04;101210.09;5053635;28;20421;-84
2023/04/16 17:00:19;;;;;;;;;;;;;;;12.05;67.30;101205.84;5051910;28;20221;-82
2023/04/16 17:03:22;;;;;;;;;;;;;;;12.06;67.61;101205.78;5053442;28;20292;-83
2023/04/16 17:06:27;;;;;;;;;;;;;;;12.00;68.91;101213.94;5053510;28;20030;-71
2023/04/16 17:09:30;;;;;;;;;;;;;;;11.96;68.98;101209.75;5053403;28;19986;-78
2023/04/16 17:12:33;;;;;;;;;;;;;;;11.97;68.99;101218.47;5041117;28;19999;-81
2023/04/16 17:15:36;;;;;;;;;;;;;;;11.96;69.65;101224.63;5053210;28;19923;-81
2023/04/16 17:18:38;;;;;;;;;;;;;;;11.89;70.87;101221.44;5053408;28;20371;-81
2023/04/16 17:21:41;;;;;;;;;;;;;;;11.86;71.60;101219.81;5053099;28;19923;-76
2023/04/16 17:24:45;;;;;;;;;;;;;;;11.87;70.89;101220.69;5053063;28;19924;-79
2023/04/16 17:27:48;;;;;;;;;;;;;;;11.89;70.99;101223.22;5040722;28;19924;-82
2023/04/16 17:30:52;;;;;;;;;;;;;;;11.88;70.83;101229.38;5052898;28;19970;-81
2023/04/16 17:33:54;;;;;;;;;;;;;;;11.83;71.02;101227.78;5052902;28;19924;-81
2023/04/16 17:36:57;;;;;;;;;;;;;;;11.84;70.71;101232.16;5053010;28;19982;-81
2023/04/16 17:40:00;;;;;;;;;;;;;;;11.86;71.17;101229.44;5052963;28;19923;-80
2023/04/16 17:43:03;;;;;;;;;;;;;;;11.79;72.38;101234.09;5053211;28;19924;-79
2023/04/16 17:46:09;;;;;;;;;;;;;;;11.76;72.80;101236.84;5052798;28;19923;-83
2023/04/16 17:49:12;;;;;;;;;;;;;;;11.73;72.52;101242.22;5053236;28;20018;-83
2023/04/16 17:52:16;;;;;;;;;;;;;;;11.60;72.03;101238.47;5052922;28;19969;-83
2023/04/16 17:55:18;;;;;;;;;;;;;;;11.56;70.51;101243.00;5052576;28;19975;-83
2023/04/16 17:58:25;;;;;;;;;;;;;;;11.54;69.43;101242.19;5052874;28;19924;-83
2023/04/16 18:01:28;;;;;;;;;;;;;;;11.51;69.96;101241.50;5040749;28;19970;-83
2023/04/16 18:04:31;;;;;;;;;;;;;;;11.49;70.58;101252.06;5052207;28;20019;-83
2023/04/16 18:07:36;;;;;;;;;;;;;;;11.46;71.03;101253.97;5051511;28;19923;-77
2023/04/16 18:10:39;;;;;;;;;;;;;;;11.46;71.58;101253.97;5050957;28;19970;-78
2023/04/16 18:13:43;;;;;;;;;;;;;;;11.44;71.31;101263.63;5053278;28;19923;-78
2023/04/16 18:16:47;;;;;;;;;;;;;;;11.38;69.55;101257.75;5065272;28;19993;-78
2023/04/16 18:19:56;;;;;;;;;;;;;;;11.41;70.22;101268.09;5072465;28;20300;-83
2023/04/16 18:23:00;;;;;;;;;;;;;;;11.36;69.42;101262.22;5071862;28;19954;-79
2023/04/16 18:26:03;;;;;;;;;;;;;;;11.39;69.84;101269.94;5071848;28;20029;-76
2023/04/16 18:29:06;;;;;;;;;;;;;;;11.40;69.65;101276.03;5071662;28;19938;-78
2023/04/16 18:32:12;;;;;;;;;;;;;;;11.38;69.92;101273.44;5072873;28;20323;-77
2023/04/16 18:35:16;;;;;;;;;;;;;;;11.39;70.36;101283.03;5072691;28;20400;-77
2023/04/16 18:38:20;;;;;;;;;;;;;;;11.35;71.14;101291.06;5072641;28;20016;-77
2023/04/16 18:41:24;;;;;;;;;;;;;;;11.29;70.79;101289.56;5073581;28;19962;-78
2023/04/16 18:44:27;;;;;;;;;;;;;;;11.27;71.31;101295.81;5076785;28;20065;-78
2023/04/16 18:47:30;;;;;;;;;;;;;;;11.27;70.75;101301.88;5076030;28;19985;-77
2023/04/16 18:50:34;;;;;;;;;;;;;;;11.22;71.96;101298.59;5076244;28;20014;-77
2023/04/16 18:53:38;;;;;;;;;;;;;;;11.14;72.69;101305.94;5075818;28;20058;-79
2023/04/16 18:56:41;;;;;;;;;;;;;;;11.01;73.37;101304.72;5063788;28;20336;-78
2023/04/16 18:59:44;;;;;;;;;;;;;;;10.92;73.71;101312.06;5077541;28;19939;-78
2023/04/16 19:02:48;;;;;;;;;;;;;;;10.86;73.86;101301.84;5076567;28;19923;-79
2023/04/16 19:05:52;;;;;;;;;;;;;;;10.84;73.72;101313.28;5075910;28;19969;-75
2023/04/16 19:08:55;;;;;;;;;;;;;;;10.65;74.60;101313.16;5061927;28;19931;-76
2023/04/16 19:11:59;;;;;;;;;;;;;;;10.63;74.95;101315.84;5059297;28;19923;-77
2023/04/16 19:15:03;;;;;;;;;;;;;;;10.61;75.02;101317.66;5047309;28;19973;-75
2023/04/16 19:18:07;;;;;;;;;;;;;;;10.57;75.14;101323.09;5059033;28;19923;-76
2023/04/16 19:21:10;;;;;;;;;;;;;;;10.50;76.08;101314.66;5063967;28;20372;-76
2023/04/16 19:24:18;;;;;;;;;;;;;;;10.47;75.77;101315.63;5062914;28;20327;-77
2023/04/16 19:27:27;;;;;;;;;;;;;;;10.46;76.08;101321.75;5062870;28;19971;-75
2023/04/16 19:30:30;;;;;;;;;;;;;;;10.42;75.76;101320.16;5064060;28;19924;-74